createdAt,value
2022-10-30T00:01:32.387Z,101407.00
2022-10-30T00:04:00.367Z,101410.00
2022-10-30T00:06:28.501Z,101411.00
2022-10-30T00:08:56.846Z,101410.00
2022-10-30T00:11:25.219Z,101408.00
2022-10-30T00:13:55.181Z,101402.00
2022-10-30T00:16:24.508Z,101413.00
2022-10-30T00:18:52.720Z,101417.00
2022-10-30T00:21:21.204Z,101417.00
2022-10-30T00:23:53.768Z,101427.00
2022-10-30T00:26:25.841Z,101416.00
2022-10-30T00:28:56.674Z,101420.00
2022-10-30T00:31:24.492Z,101420.00
2022-10-30T00:33:54.013Z,101423.00
2022-10-30T00:36:22.935Z,101412.00
2022-10-30T00:38:50.956Z,101416.00
2022-10-30T00:41:22.838Z,101410.00
2022-10-30T00:43:51.442Z,101415.00
2022-10-30T00:46:31.692Z,101413.00
2022-10-30T00:49:17.051Z,101415.00
2022-10-30T00:51:54.168Z,101410.00
2022-10-30T00:54:25.103Z,101405.00
2022-10-30T00:57:51.447Z,101405.00
2022-10-30T01:00:23.354Z,101407.00
2022-10-30T01:02:52.781Z,101409.00
2022-10-30T01:05:25.722Z,101401.00
2022-10-30T01:07:53.963Z,101398.00
2022-10-30T01:10:23.560Z,101383.00
2022-10-30T01:12:55.010Z,101400.00
2022-10-30T01:15:34.438Z,101411.00
2022-10-30T01:18:35.268Z,101409.00
2022-10-30T01:21:19.560Z,101402.00
2022-10-30T01:24:28.072Z,101395.00
2022-10-30T01:28:13.336Z,101400.00
2022-10-30T01:31:18.149Z,101392.00
2022-10-30T01:34:25.351Z,101402.00
2022-10-30T01:37:10.610Z,101397.00
2022-10-30T01:39:41.558Z,101396.00
2022-10-30T01:42:47.431Z,101399.00
2022-10-30T01:46:15.410Z,101407.00
2022-10-30T01:49:20.445Z,101411.00
2022-10-30T01:51:56.395Z,101411.00
2022-10-30T01:54:47.443Z,101405.00
2022-10-30T01:57:58.868Z,101403.00
2022-10-30T02:00:27.813Z,101418.00
2022-10-30T02:02:56.528Z,101409.00
2022-10-30T02:05:43.444Z,101406.00
2022-10-30T02:08:10.868Z,101411.00
2022-10-30T02:10:39.569Z,101414.00
2022-10-30T02:13:06.996Z,101411.00
2022-10-30T02:15:35.425Z,101405.00
2022-10-30T02:18:02.871Z,101407.00
2022-10-30T02:20:30.575Z,101412.00
2022-10-30T02:22:59.435Z,101408.00
2022-10-30T02:25:27.748Z,101407.00
2022-10-30T02:27:54.906Z,101399.00
2022-10-30T02:30:22.157Z,101412.00
2022-10-30T02:32:49.723Z,101400.00
2022-10-30T02:35:16.900Z,101411.00
2022-10-30T02:37:44.305Z,101400.00
2022-10-30T02:40:12.490Z,101403.00
2022-10-30T02:42:39.721Z,101414.00
2022-10-30T02:45:07.615Z,101412.00
2022-10-30T02:47:34.895Z,101416.00
2022-10-30T02:50:02.335Z,101402.00
2022-10-30T02:52:29.732Z,101414.00
2022-10-30T02:54:57.036Z,101412.00
2022-10-30T02:57:24.770Z,101424.00
2022-10-30T02:59:52.511Z,101426.00
2022-10-30T03:02:20.031Z,101429.00
2022-10-30T03:04:47.578Z,101416.00
2022-10-30T03:07:15.064Z,101425.00
2022-10-30T03:09:43.051Z,101424.00
2022-10-30T03:12:10.562Z,101422.00
2022-10-30T03:14:38.437Z,101419.00
2022-10-30T03:17:06.041Z,101415.00
2022-10-30T03:19:33.599Z,101412.00
2022-10-30T03:22:00.899Z,101429.00
2022-10-30T03:24:28.905Z,101429.00
2022-10-30T03:26:56.476Z,101413.00
2022-10-30T03:29:24.767Z,101424.00
2022-10-30T03:31:52.646Z,101430.00
2022-10-30T03:34:21.886Z,101436.00
2022-10-30T03:36:50.095Z,101444.00
2022-10-30T03:39:17.712Z,101433.00
2022-10-30T03:41:45.163Z,101422.00
2022-10-30T03:44:13.629Z,101435.00
2022-10-30T03:46:41.914Z,101435.00
2022-10-30T03:49:09.616Z,101445.00
2022-10-30T03:51:40.439Z,101435.00
2022-10-30T03:54:08.121Z,101431.00
2022-10-30T03:56:36.682Z,101430.00
2022-10-30T03:59:04.063Z,101413.00
2022-10-30T04:01:31.644Z,101422.00
2022-10-30T04:03:59.848Z,101425.00
2022-10-30T04:06:27.479Z,101416.00
2022-10-30T04:08:57.907Z,101418.00
2022-10-30T04:11:25.717Z,101410.00
2022-10-30T04:13:53.952Z,101413.00
2022-10-30T04:16:21.611Z,101415.00
2022-10-30T04:18:49.283Z,101413.00
2022-10-30T04:21:17.135Z,101413.00
2022-10-30T04:23:45.279Z,101414.00
2022-10-30T04:26:13.377Z,101412.00
2022-10-30T04:28:41.242Z,101408.00
2022-10-30T04:31:09.075Z,101401.00
2022-10-30T04:33:36.767Z,101404.00
2022-10-30T04:36:04.491Z,101405.00
2022-10-30T04:38:32.518Z,101410.00
2022-10-30T04:41:00.042Z,101403.00
2022-10-30T04:43:28.431Z,101401.00
2022-10-30T04:45:56.518Z,101414.00
2022-10-30T04:48:24.079Z,101421.00
2022-10-30T04:50:51.836Z,101406.00
2022-10-30T04:53:38.943Z,101414.00
2022-10-30T04:56:26.419Z,101402.00
2022-10-30T04:58:54.906Z,101412.00
2022-10-30T05:01:22.992Z,101415.00
2022-10-30T05:03:54.691Z,101407.00
2022-10-30T05:06:26.520Z,101408.00
2022-10-30T05:08:55.998Z,101407.00
2022-10-30T05:11:24.221Z,101398.00
2022-10-30T05:13:52.089Z,101406.00
2022-10-30T05:16:19.551Z,101417.00
2022-10-30T05:18:47.505Z,101406.00
2022-10-30T05:21:15.255Z,101397.00
2022-10-30T05:23:42.787Z,101410.00
2022-10-30T05:26:10.400Z,101407.00
2022-10-30T05:28:38.340Z,101407.00
2022-10-30T05:31:06.028Z,101410.00
2022-10-30T05:33:33.751Z,101411.00
2022-10-30T05:36:01.458Z,101404.00
2022-10-30T05:38:29.285Z,101407.00
2022-10-30T05:40:56.948Z,101409.00
2022-10-30T05:43:25.035Z,101398.00
2022-10-30T05:45:52.883Z,101404.00
2022-10-30T05:48:21.086Z,101393.00
2022-10-30T05:50:48.726Z,101390.00
2022-10-30T05:53:17.141Z,101385.00
2022-10-30T05:55:44.705Z,101395.00
2022-10-30T05:58:12.460Z,101394.00
2022-10-30T06:00:41.335Z,101393.00
2022-10-30T06:03:13.276Z,101402.00
2022-10-30T06:05:42.474Z,101402.00
2022-10-30T06:08:10.180Z,101405.00
2022-10-30T06:10:38.118Z,101403.00
2022-10-30T06:13:08.080Z,101409.00
2022-10-30T06:15:36.150Z,101395.00
2022-10-30T06:18:04.170Z,101400.00
2022-10-30T06:20:32.793Z,101400.00
2022-10-30T06:23:05.499Z,101406.00
2022-10-30T06:25:41.356Z,101408.00
2022-10-30T06:28:12.868Z,101411.00
2022-10-30T06:30:40.811Z,101419.00
2022-10-30T06:33:10.430Z,101409.00
2022-10-30T06:35:38.633Z,101410.00
2022-10-30T06:38:09.726Z,101408.00
2022-10-30T06:40:37.549Z,101408.00
2022-10-30T06:43:05.330Z,101409.00
2022-10-30T06:45:33.043Z,101409.00
2022-10-30T06:48:03.438Z,101402.00
2022-10-30T06:51:10.324Z,101404.00
2022-10-30T06:53:38.455Z,101399.00
2022-10-30T06:56:06.877Z,101404.00
2022-10-30T06:58:39.506Z,101398.00
2022-10-30T07:01:08.013Z,101408.00
2022-10-30T07:03:37.267Z,101393.00
2022-10-30T07:06:06.575Z,101399.00
2022-10-30T07:08:34.824Z,101400.00
2022-10-30T07:11:02.413Z,101396.00
2022-10-30T07:13:30.881Z,101397.00
2022-10-30T07:16:01.004Z,101393.00
2022-10-30T07:18:29.764Z,101388.00
2022-10-30T07:20:57.832Z,101390.00
2022-10-30T07:23:27.154Z,101394.00
2022-10-30T07:25:59.505Z,101397.00
2022-10-30T07:28:32.256Z,101381.00
2022-10-30T07:31:00.164Z,101381.00
2022-10-30T07:33:29.911Z,101394.00
2022-10-30T07:36:01.448Z,101388.00
2022-10-30T07:38:30.025Z,101386.00
2022-10-30T07:40:59.326Z,101395.00
2022-10-30T07:43:27.834Z,101389.00
2022-10-30T07:45:59.942Z,101401.00
2022-10-30T07:48:27.720Z,101382.00
2022-10-30T07:50:55.378Z,101386.00
2022-10-30T07:53:23.042Z,101385.00
2022-10-30T07:55:50.994Z,101388.00
2022-10-30T07:58:18.780Z,101387.00
2022-10-30T08:00:48.003Z,101387.00
2022-10-30T08:03:16.532Z,101392.00
2022-10-30T08:05:44.361Z,101387.00
2022-10-30T08:08:12.266Z,101395.00
2022-10-30T08:10:40.649Z,101386.00
2022-10-30T08:13:08.382Z,101399.00
2022-10-30T08:15:36.003Z,101390.00
2022-10-30T08:18:04.080Z,101404.00
2022-10-30T08:20:32.215Z,101398.00
2022-10-30T08:23:00.574Z,101398.00
2022-10-30T08:25:33.727Z,101386.00
2022-10-30T08:28:07.776Z,101385.00
2022-10-30T08:30:39.452Z,101378.00
2022-10-30T08:33:14.271Z,101380.00
2022-10-30T08:35:55.508Z,101362.00
2022-10-30T08:38:24.133Z,101361.00
2022-10-30T08:40:52.525Z,101351.00
2022-10-30T08:43:21.106Z,101363.00
2022-10-30T08:45:49.023Z,101356.00
2022-10-30T08:48:17.664Z,101360.00
2022-10-30T08:50:46.125Z,101360.00
2022-10-30T08:53:17.777Z,101336.00
2022-10-30T08:55:45.438Z,101341.00
2022-10-30T08:58:13.106Z,101335.00
2022-10-30T09:00:40.861Z,101337.00
2022-10-30T09:03:08.721Z,101359.00
2022-10-30T09:05:38.216Z,101346.00
2022-10-30T09:08:06.483Z,101345.00
2022-10-30T09:10:34.379Z,101356.00
2022-10-30T09:13:04.807Z,101349.00
2022-10-30T09:15:32.083Z,101352.00
2022-10-30T09:18:04.684Z,101337.00
2022-10-30T09:20:32.603Z,101352.00
2022-10-30T09:23:00.510Z,101359.00
2022-10-30T09:25:28.074Z,101358.00
2022-10-30T09:27:55.388Z,101364.00
2022-10-30T09:30:26.384Z,101360.00
2022-10-30T09:32:59.875Z,101366.00
2022-10-30T09:35:27.375Z,101362.00
2022-10-30T09:37:55.879Z,101364.00
2022-10-30T09:41:02.326Z,101362.00
2022-10-30T09:44:03.829Z,101362.00
2022-10-30T09:47:06.775Z,101342.00
2022-10-30T09:49:58.403Z,101344.00
2022-10-30T09:52:28.083Z,101350.00
2022-10-30T09:55:50.178Z,101357.00
2022-10-30T09:58:47.584Z,101344.00
2022-10-30T10:01:20.529Z,101344.00
2022-10-30T10:04:27.453Z,101334.00
2022-10-30T10:07:11.215Z,101333.00
2022-10-30T10:09:42.429Z,101325.00
2022-10-30T10:12:33.777Z,101327.00
2022-10-30T10:15:09.989Z,101318.00
2022-10-30T10:17:43.712Z,101335.00
2022-10-30T10:20:32.720Z,101330.00
2022-10-30T10:23:12.521Z,101337.00
2022-10-30T10:25:50.632Z,101342.00
2022-10-30T10:29:09.121Z,101345.00
2022-10-30T10:32:14.842Z,101336.00
2022-10-30T10:34:53.660Z,101343.00
2022-10-30T10:37:48.344Z,101338.00
2022-10-30T10:40:58.219Z,101334.00
2022-10-30T10:44:00.021Z,101337.00
2022-10-30T10:46:45.347Z,101325.00
2022-10-30T10:49:46.763Z,101326.00
2022-10-30T10:52:22.026Z,101327.00
2022-10-30T10:55:04.976Z,101319.00
2022-10-30T10:57:42.277Z,101323.00
2022-10-30T11:00:17.589Z,101326.00
2022-10-30T11:03:23.402Z,101323.00
2022-10-30T11:06:15.333Z,101321.00
2022-10-30T11:08:43.249Z,101322.00
2022-10-30T11:11:10.512Z,101324.00
2022-10-30T11:13:43.848Z,101315.00
2022-10-30T11:16:34.800Z,101322.00
2022-10-30T11:19:08.498Z,101315.00
2022-10-30T11:21:45.227Z,101316.00
2022-10-30T11:24:34.227Z,101310.00
2022-10-30T11:27:23.301Z,101313.00
2022-10-30T11:30:02.703Z,101315.00
2022-10-30T11:32:33.574Z,101313.00
2022-10-30T11:35:19.905Z,101308.00
2022-10-30T11:37:54.138Z,101306.00
2022-10-30T11:40:24.018Z,101304.00
2022-10-30T11:43:10.563Z,101297.00
2022-10-30T11:45:44.224Z,101300.00
2022-10-30T11:48:34.436Z,101308.00
2022-10-30T11:51:04.035Z,101304.00
2022-10-30T11:53:38.845Z,101306.00
2022-10-30T11:56:20.411Z,101311.00
2022-10-30T11:59:01.243Z,101302.00
2022-10-30T12:01:36.332Z,101298.00
2022-10-30T12:04:25.906Z,101309.00
2022-10-30T12:07:31.682Z,101319.00
2022-10-30T12:09:59.987Z,101308.00
2022-10-30T12:12:53.699Z,101311.00
2022-10-30T12:15:27.024Z,101310.00
2022-10-30T12:18:02.742Z,101306.00
2022-10-30T12:20:30.765Z,101313.00
2022-10-30T12:22:59.055Z,101318.00
2022-10-30T12:25:32.393Z,101303.00
2022-10-30T12:28:15.455Z,101300.00
2022-10-30T12:31:09.023Z,101305.00
2022-10-30T12:33:50.400Z,101309.00
2022-10-30T12:36:22.675Z,101299.00
2022-10-30T12:39:22.277Z,101304.00
2022-10-30T12:41:49.475Z,101298.00
2022-10-30T12:44:33.484Z,101294.00
2022-10-30T12:47:09.670Z,101302.00
2022-10-30T12:50:02.176Z,101304.00
2022-10-30T12:52:42.160Z,101298.00
2022-10-30T12:55:40.945Z,101302.00
2022-10-30T12:58:41.668Z,101306.00
2022-10-30T13:01:27.255Z,101309.00
2022-10-30T13:04:10.809Z,101308.00
2022-10-30T13:06:54.337Z,101301.00
2022-10-30T13:09:39.067Z,101301.00
2022-10-30T13:12:18.249Z,101297.00
2022-10-30T13:15:06.279Z,101298.00
2022-10-30T13:17:33.832Z,101297.00
2022-10-30T13:20:01.105Z,101291.00
2022-10-30T13:23:02.283Z,101295.00
2022-10-30T13:26:18.459Z,101297.00
2022-10-30T13:29:06.221Z,101299.00
2022-10-30T13:32:02.733Z,101299.00
2022-10-30T13:35:10.318Z,101303.00
2022-10-30T13:38:05.318Z,101296.00
2022-10-30T13:40:39.449Z,101289.00
2022-10-30T13:43:27.487Z,101291.00
2022-10-30T13:46:03.561Z,101283.00
2022-10-30T13:48:59.519Z,101266.00
2022-10-30T13:51:29.630Z,101270.00
2022-10-30T13:54:18.317Z,101276.00
2022-10-30T13:56:50.697Z,101267.00
2022-10-30T13:59:36.176Z,101271.00
2022-10-30T14:02:38.082Z,101264.00
2022-10-30T14:05:35.938Z,101260.00
2022-10-30T14:08:16.187Z,101266.00
2022-10-30T14:10:59.468Z,101271.00
2022-10-30T14:13:45.540Z,101260.00
2022-10-30T14:16:43.102Z,101259.00
2022-10-30T14:19:15.133Z,101277.00
2022-10-30T14:21:57.766Z,101276.00
2022-10-30T14:24:34.106Z,101278.00
2022-10-30T14:27:05.148Z,101291.00
2022-10-30T14:29:36.740Z,101285.00
2022-10-30T14:32:24.668Z,101284.00
2022-10-30T14:34:52.552Z,101292.00
2022-10-30T14:37:40.328Z,101289.00
2022-10-30T14:41:05.188Z,101301.00
2022-10-30T14:44:04.151Z,101298.00
2022-10-30T14:47:01.588Z,101302.00
2022-10-30T14:49:53.836Z,101298.00
2022-10-30T14:53:24.891Z,101306.00
2022-10-30T14:56:20.289Z,101313.00
2022-10-30T14:59:13.661Z,101313.00
2022-10-30T15:02:22.028Z,101326.00
2022-10-30T15:05:13.199Z,101330.00
2022-10-30T15:07:59.273Z,101322.00
2022-10-30T15:10:37.573Z,101323.00
2022-10-30T15:13:23.278Z,101328.00
2022-10-30T15:16:06.706Z,101333.00
2022-10-30T15:18:36.385Z,101326.00
2022-10-30T15:21:07.964Z,101338.00
2022-10-30T15:23:37.700Z,101333.00
2022-10-30T15:26:21.379Z,101337.00
2022-10-30T15:28:53.855Z,101339.00
2022-10-30T15:31:27.156Z,101342.00
2022-10-30T15:33:56.963Z,101349.00
2022-10-30T15:36:42.549Z,101350.00
2022-10-30T15:39:17.079Z,101345.00
2022-10-30T15:41:58.312Z,101348.00
2022-10-30T15:44:33.287Z,101361.00
2022-10-30T15:47:03.796Z,101363.00
2022-10-30T15:49:37.411Z,101352.00
2022-10-30T15:52:28.215Z,101362.00
2022-10-30T15:55:03.020Z,101373.00
2022-10-30T15:58:01.581Z,101379.00
2022-10-30T16:00:39.852Z,101379.00
2022-10-30T16:03:18.246Z,101388.00
2022-10-30T16:05:45.823Z,101384.00
2022-10-30T16:08:20.724Z,101374.00
2022-10-30T16:10:50.279Z,101370.00
2022-10-30T16:13:25.502Z,101388.00
2022-10-30T16:15:53.149Z,101391.00
2022-10-30T16:18:31.804Z,101381.00
2022-10-30T16:21:08.529Z,101408.00
2022-10-30T16:23:47.060Z,101412.00
2022-10-30T16:26:44.698Z,101410.00
2022-10-30T16:29:14.628Z,101405.00
2022-10-30T16:31:49.854Z,101402.00
2022-10-30T16:34:35.368Z,101421.00
2022-10-30T16:37:05.117Z,101423.00
2022-10-30T16:39:35.390Z,101426.00
2022-10-30T16:42:03.711Z,101422.00
2022-10-30T16:44:36.127Z,101441.00
2022-10-30T16:47:44.926Z,101448.00
2022-10-30T16:50:19.836Z,101449.00
2022-10-30T16:54:05.419Z,101453.00
2022-10-30T17:00:07.696Z,101459.00
2022-10-30T17:02:49.011Z,101472.00
2022-10-30T17:05:31.499Z,101481.00
2022-10-30T17:08:10.800Z,101473.00
2022-10-30T17:11:01.256Z,101486.00
2022-10-30T17:14:00.866Z,101480.00
2022-10-30T17:17:03.500Z,101472.00
2022-10-30T17:20:07.594Z,101477.00
2022-10-30T17:22:35.576Z,101467.00
2022-10-30T17:25:25.082Z,101494.00
2022-10-30T17:27:53.494Z,101481.00
2022-10-30T17:30:34.835Z,101492.00
2022-10-30T17:33:35.515Z,101497.00
2022-10-30T17:36:06.569Z,101497.00
2022-10-30T17:38:34.276Z,101491.00
2022-10-30T17:41:02.859Z,101486.00
2022-10-30T17:43:49.504Z,101493.00
2022-10-30T17:46:20.241Z,101498.00
2022-10-30T17:48:50.170Z,101495.00
2022-10-30T17:51:31.953Z,101499.00
2022-10-30T17:54:56.678Z,101496.00
2022-10-30T17:57:25.681Z,101506.00
2022-10-30T17:59:53.611Z,101508.00
2022-10-30T18:02:24.316Z,101512.00
2022-10-30T18:04:55.294Z,101502.00
2022-10-30T18:07:23.510Z,101519.00
2022-10-30T18:09:52.281Z,101522.00
2022-10-30T18:12:20.751Z,101520.00
2022-10-30T18:17:31.688Z,101540.00
2022-10-30T18:24:30.957Z,101544.00
2022-10-30T18:26:58.961Z,101551.00
2022-10-30T18:29:30.427Z,101550.00
2022-10-30T18:31:58.429Z,101560.00
2022-10-30T18:34:26.167Z,101566.00
2022-10-30T18:36:53.838Z,101556.00
2022-10-30T18:39:22.062Z,101566.00
2022-10-30T18:41:50.185Z,101559.00
2022-10-30T18:44:20.461Z,101574.00
2022-10-30T18:46:48.550Z,101573.00
2022-10-30T18:53:45.429Z,101584.00
2022-10-30T18:57:11.310Z,101600.00
2022-10-30T18:59:56.613Z,101578.00
2022-10-30T19:02:38.129Z,101582.00
2022-10-30T19:06:03.935Z,101599.00
2022-10-30T19:08:35.750Z,101608.00
2022-10-30T19:11:02.977Z,101599.00
2022-10-30T19:13:30.942Z,101605.00
2022-10-30T19:16:01.523Z,101604.00
2022-10-30T19:18:31.567Z,101598.00
2022-10-30T19:21:10.199Z,101597.00
2022-10-30T19:23:40.932Z,101600.00
2022-10-30T19:26:38.647Z,101586.00
2022-10-30T19:29:06.666Z,101606.00
2022-10-30T19:31:35.279Z,101613.00
2022-10-30T19:34:05.600Z,101619.00
2022-10-30T19:36:38.135Z,101603.00
2022-10-30T19:39:17.909Z,101615.00
2022-10-30T19:41:46.408Z,101599.00
2022-10-30T19:44:14.733Z,101605.00
2022-10-30T19:46:42.287Z,101614.00
2022-10-30T19:49:21.142Z,101612.00
2022-10-30T19:51:49.322Z,101614.00
2022-10-30T19:54:16.839Z,101609.00
2022-10-30T19:56:44.939Z,101603.00
2022-10-30T19:59:15.688Z,101607.00
2022-10-30T20:01:45.299Z,101623.00
2022-10-30T20:04:17.850Z,101632.00
2022-10-30T20:06:45.171Z,101634.00
2022-10-30T20:09:13.899Z,101630.00
2022-10-30T20:11:43.973Z,101638.00
2022-10-30T20:14:11.463Z,101631.00
2022-10-30T20:16:39.125Z,101653.00
2022-10-30T20:19:32.798Z,101649.00
2022-10-30T20:21:59.977Z,101656.00
2022-10-30T20:24:27.335Z,101658.00
2022-10-30T20:26:57.891Z,101660.00
2022-10-30T20:29:25.782Z,101652.00
2022-10-30T20:31:52.951Z,101653.00
2022-10-30T20:34:20.286Z,101647.00
2022-10-30T20:36:50.834Z,101644.00
2022-10-30T20:39:18.133Z,101646.00
2022-10-30T20:41:45.420Z,101654.00
2022-10-30T20:44:13.574Z,101657.00
2022-10-30T20:46:40.866Z,101657.00
2022-10-30T20:49:17.146Z,101668.00
2022-10-30T20:51:45.793Z,101655.00
2022-10-30T20:54:13.010Z,101673.00
2022-10-30T20:56:40.512Z,101669.00
2022-10-30T20:59:07.881Z,101678.00
2022-10-30T21:01:35.405Z,101681.00
2022-10-30T21:04:02.676Z,101688.00
2022-10-30T21:06:29.902Z,101691.00
2022-10-30T21:08:57.243Z,101696.00
2022-10-30T21:11:25.656Z,101701.00
2022-10-30T21:13:56.847Z,101699.00
2022-10-30T21:16:24.874Z,101710.00
2022-10-30T21:18:55.960Z,101706.00
2022-10-30T21:21:26.232Z,101709.00
2022-10-30T21:23:57.146Z,101716.00
2022-10-30T21:26:25.123Z,101723.00
2022-10-30T21:28:54.567Z,101712.00
2022-10-30T21:31:21.999Z,101715.00
2022-10-30T21:33:49.173Z,101722.00
2022-10-30T21:36:20.006Z,101725.00
2022-10-30T21:38:47.627Z,101727.00
2022-10-30T21:41:19.814Z,101731.00
2022-10-30T21:43:56.572Z,101721.00
2022-10-30T21:46:27.800Z,101730.00
2022-10-30T21:48:56.015Z,101725.00
2022-10-30T21:51:26.601Z,101718.00
2022-10-30T21:53:57.080Z,101713.00
2022-10-30T21:56:28.336Z,101722.00
2022-10-30T21:58:59.716Z,101721.00
2022-10-30T22:01:32.974Z,101725.00
2022-10-30T22:04:02.954Z,101716.00
2022-10-30T22:06:31.445Z,101729.00
2022-10-30T22:09:03.483Z,101743.00
2022-10-30T22:11:31.259Z,101746.00
2022-10-30T22:14:02.691Z,101728.00
2022-10-30T22:16:33.955Z,101727.00
2022-10-30T22:19:02.578Z,101746.00
2022-10-30T22:21:30.885Z,101741.00
2022-10-30T22:28:09.341Z,101729.00
2022-10-30T22:30:37.661Z,101728.00
2022-10-30T22:33:05.625Z,101747.00
2022-10-30T22:35:33.607Z,101742.00
2022-10-30T22:38:02.293Z,101748.00
2022-10-30T22:40:30.915Z,101748.00
2022-10-30T22:42:58.619Z,101748.00
2022-10-30T22:45:31.949Z,101749.00
2022-10-30T22:48:02.134Z,101747.00
2022-10-30T22:50:34.342Z,101746.00
2022-10-30T22:53:11.474Z,101755.00
2022-10-30T22:56:54.375Z,101751.00
2022-10-30T22:59:23.979Z,101745.00
2022-10-30T23:01:53.651Z,101756.00
2022-10-30T23:04:22.034Z,101754.00
2022-10-30T23:06:49.435Z,101764.00
2022-10-30T23:09:22.551Z,101753.00
2022-10-30T23:11:50.622Z,101768.00
2022-10-30T23:14:19.117Z,101764.00
2022-10-30T23:16:46.581Z,101764.00
2022-10-30T23:19:14.067Z,101763.00
2022-10-30T23:21:41.197Z,101773.00
2022-10-30T23:24:09.989Z,101768.00
2022-10-30T23:26:37.502Z,101766.00
2022-10-30T23:33:18.048Z,101771.00
2022-10-30T23:35:45.271Z,101761.00
2022-10-30T23:38:12.681Z,101770.00
2022-10-30T23:40:40.141Z,101767.00
2022-10-30T23:43:07.694Z,101753.00
2022-10-30T23:45:35.923Z,101759.00
2022-10-30T23:48:03.554Z,101760.00
2022-10-30T23:50:35.218Z,101756.00
2022-10-30T23:53:03.264Z,101763.00
2022-10-30T23:55:31.298Z,101760.00
2022-10-30T23:58:01.399Z,101769.00
